createdAt,value
2022-11-14T00:01:57.275Z,102413.25
2022-11-14T00:05:19.032Z,102414.97
2022-11-14T00:08:40.439Z,102412.31
2022-11-14T00:12:01.547Z,102423.91
2022-11-14T00:15:24.165Z,102414.97
2022-11-14T00:18:45.397Z,102414.09
2022-11-14T00:22:06.982Z,102417.63
2022-11-14T00:25:28.552Z,102406.97
2022-11-14T00:28:49.950Z,102404.31
2022-11-14T00:32:12.582Z,102402.53
2022-11-14T00:35:33.806Z,102390.09
2022-11-14T00:38:55.681Z,102390.97
2022-11-14T00:42:17.380Z,102380.31
2022-11-14T00:45:38.656Z,102383.88
2022-11-14T00:49:01.802Z,102378.53
2022-11-14T00:52:22.988Z,102374.09
2022-11-14T00:55:44.427Z,102367.00
2022-11-14T00:59:06.262Z,102364.31
2022-11-14T01:02:27.920Z,102363.41
2022-11-14T01:05:52.318Z,102355.41
2022-11-14T01:09:13.953Z,102342.09
2022-11-14T01:12:35.843Z,102342.09
2022-11-14T01:16:02.305Z,102352.75
2022-11-14T01:19:23.708Z,102357.22
2022-11-14T01:22:46.370Z,102355.41
2022-11-14T01:26:12.775Z,102352.75
2022-11-14T01:29:33.970Z,102345.63
2022-11-14T01:32:55.418Z,102342.09
2022-11-14T01:36:16.621Z,102325.22
2022-11-14T01:39:39.272Z,102318.09
2022-11-14T01:43:29.745Z,102313.66
2022-11-14T01:46:57.373Z,102312.75
2022-11-14T01:50:18.885Z,102295.88
2022-11-14T01:53:40.735Z,102297.66
2022-11-14T01:57:05.790Z,102285.25
2022-11-14T02:00:27.530Z,102287.88
2022-11-14T02:03:53.062Z,102270.13
2022-11-14T02:07:16.165Z,102269.25
2022-11-14T02:10:37.869Z,102265.66
2022-11-14T02:14:00.859Z,102248.78
2022-11-14T02:17:31.034Z,102254.13
2022-11-14T02:20:54.092Z,102255.94
2022-11-14T02:24:15.668Z,102253.25
2022-11-14T02:27:38.869Z,102255.94
2022-11-14T02:31:00.251Z,102241.72
2022-11-14T02:34:21.613Z,102239.94
2022-11-14T02:37:44.233Z,102240.00
2022-11-14T02:41:05.798Z,102235.59
2022-11-14T02:44:27.455Z,102225.03
2022-11-14T02:47:48.998Z,102224.19
2022-11-14T02:51:10.222Z,102219.75
2022-11-14T02:54:32.769Z,102214.53
2022-11-14T02:57:54.019Z,102211.03
2022-11-14T03:01:20.869Z,102219.94
2022-11-14T03:04:42.954Z,102212.88
2022-11-14T03:08:04.312Z,102212.00
2022-11-14T03:11:27.244Z,102205.78
2022-11-14T03:14:49.499Z,102205.78
2022-11-14T03:18:11.133Z,102210.22
2022-11-14T03:21:32.397Z,102205.81
2022-11-14T03:24:53.828Z,102199.63
2022-11-14T03:28:16.876Z,102198.78
2022-11-14T03:31:38.227Z,102197.91
2022-11-14T03:34:59.638Z,102198.84
2022-11-14T03:38:23.094Z,102192.63
2022-11-14T03:41:44.747Z,102191.78
2022-11-14T03:45:08.408Z,102184.69
2022-11-14T03:48:31.387Z,102189.13
2022-11-14T03:51:53.306Z,102175.81
2022-11-14T03:55:14.753Z,102169.59
2022-11-14T03:58:36.097Z,102175.81
2022-11-14T04:01:58.631Z,102179.34
2022-11-14T04:05:19.905Z,102175.81
2022-11-14T04:08:41.541Z,102170.47
2022-11-14T04:12:02.801Z,102166.06
2022-11-14T04:15:24.058Z,102171.41
2022-11-14T04:18:46.690Z,102164.31
2022-11-14T04:22:08.023Z,102150.09
2022-11-14T04:25:29.458Z,102154.53
2022-11-14T04:28:51.090Z,102153.66
2022-11-14T04:32:12.452Z,102141.22
2022-11-14T04:35:35.123Z,102137.66
2022-11-14T04:38:56.592Z,102135.00
2022-11-14T04:42:17.892Z,102119.00
2022-11-14T04:45:39.047Z,102126.09
2022-11-14T04:49:00.449Z,102125.22
2022-11-14T04:52:23.466Z,102117.25
2022-11-14T04:55:46.093Z,102116.41
2022-11-14T04:59:07.544Z,102111.91
2022-11-14T05:02:31.925Z,102110.19
2022-11-14T05:05:53.550Z,102113.75
2022-11-14T05:09:16.173Z,102105.75
2022-11-14T05:12:37.510Z,102107.56
2022-11-14T05:15:59.939Z,102104.03
2022-11-14T05:19:21.987Z,102116.41
2022-11-14T05:22:43.186Z,102117.34
2022-11-14T05:26:08.024Z,102109.34
2022-11-14T05:29:29.190Z,102111.16
2022-11-14T05:32:52.556Z,102116.47
2022-11-14T05:36:15.497Z,102106.69
2022-11-14T05:39:36.985Z,102104.94
2022-11-14T05:42:59.658Z,102107.66
2022-11-14T05:46:20.902Z,102115.66
2022-11-14T05:49:42.133Z,102112.09
2022-11-14T05:53:03.396Z,102105.03
2022-11-14T05:56:24.889Z,102109.50
2022-11-14T05:59:47.871Z,102114.81
2022-11-14T06:03:09.345Z,102108.59
2022-11-14T06:06:30.634Z,102107.72
2022-11-14T06:09:51.859Z,102104.16
2022-11-14T06:13:13.080Z,102109.50
2022-11-14T06:16:35.619Z,102111.28
2022-11-14T06:19:56.842Z,102121.94
2022-11-14T06:23:23.457Z,102113.09
2022-11-14T06:26:46.513Z,102117.53
2022-11-14T06:30:08.841Z,102117.53
2022-11-14T06:33:35.869Z,102127.31
2022-11-14T06:36:57.386Z,102116.66
2022-11-14T06:40:18.731Z,102110.44
2022-11-14T06:43:42.084Z,102108.66
2022-11-14T06:47:03.347Z,102112.19
2022-11-14T06:50:26.045Z,102109.53
2022-11-14T06:53:47.622Z,102107.72
2022-11-14T06:57:09.277Z,102114.75
2022-11-14T07:00:30.648Z,102121.91
2022-11-14T07:03:52.727Z,102123.69
2022-11-14T07:07:15.765Z,102109.50
2022-11-14T07:10:37.134Z,102102.44
2022-11-14T07:14:00.591Z,102098.88
2022-11-14T07:17:23.411Z,102094.44
2022-11-14T07:20:46.601Z,102085.59
2022-11-14T07:24:10.219Z,102090.97
2022-11-14T07:27:31.901Z,102098.06
2022-11-14T07:30:53.401Z,102103.38
2022-11-14T07:34:14.829Z,102097.19
2022-11-14T07:37:36.371Z,102099.78
2022-11-14T07:41:00.458Z,102105.13
2022-11-14T07:44:22.326Z,102102.44
2022-11-14T07:47:43.707Z,102112.19
2022-11-14T07:51:07.362Z,102103.28
2022-11-14T07:54:28.595Z,102097.09
2022-11-14T07:57:54.243Z,102083.78
2022-11-14T08:01:16.972Z,102087.28
2022-11-14T08:04:38.663Z,102090.78
2022-11-14T08:07:59.951Z,102089.06
2022-11-14T08:11:41.793Z,102089.06
2022-11-14T08:15:04.904Z,102087.22
2022-11-14T08:18:26.770Z,102092.53
2022-11-14T08:21:48.663Z,102085.44
2022-11-14T08:25:10.416Z,102081.84
2022-11-14T08:28:31.979Z,102077.38
2022-11-14T08:31:59.784Z,102080.03
2022-11-14T08:35:21.911Z,102072.94
2022-11-14T08:38:43.380Z,102071.13
2022-11-14T08:42:04.892Z,102072.06
2022-11-14T08:45:26.466Z,102072.00
2022-11-14T08:48:49.139Z,102077.31
2022-11-14T08:52:16.368Z,102065.78
2022-11-14T08:55:38.099Z,102054.22
2022-11-14T08:58:59.700Z,102063.94
2022-11-14T09:02:21.252Z,102064.88
2022-11-14T09:05:44.624Z,102068.44
2022-11-14T09:09:06.283Z,102067.50
2022-11-14T09:12:27.601Z,102061.25
2022-11-14T09:15:49.027Z,102067.47
2022-11-14T09:19:10.590Z,102065.66
2022-11-14T09:22:33.810Z,102067.47
2022-11-14T09:25:57.006Z,102061.25
2022-11-14T09:29:19.067Z,102041.66
2022-11-14T09:32:40.320Z,102048.81
2022-11-14T09:36:04.142Z,102049.72
2022-11-14T09:39:26.673Z,102044.38
2022-11-14T09:43:03.588Z,102049.72
2022-11-14T09:46:28.996Z,102032.09
2022-11-14T09:49:55.766Z,102027.63
2022-11-14T09:53:24.452Z,102025.88
2022-11-14T09:56:47.539Z,102032.97
2022-11-14T10:00:17.766Z,102021.50
2022-11-14T10:03:51.353Z,102021.50
2022-11-14T10:07:24.987Z,102026.81
2022-11-14T10:10:59.264Z,102018.84
2022-11-14T10:14:42.578Z,102014.44
2022-11-14T10:18:20.413Z,102016.16
2022-11-14T10:21:54.078Z,102008.16
2022-11-14T10:25:23.971Z,102009.00
2022-11-14T10:29:01.128Z,102009.81
2022-11-14T10:32:36.061Z,101982.28
2022-11-14T10:36:06.463Z,101981.31
2022-11-14T10:39:34.052Z,101980.44
2022-11-14T10:43:03.510Z,101978.66
2022-11-14T10:46:30.614Z,101969.72
2022-11-14T10:49:57.004Z,101953.69
2022-11-14T10:53:25.969Z,101967.03
2022-11-14T10:56:47.960Z,101953.69
2022-11-14T11:00:14.392Z,101951.88
2022-11-14T11:03:43.315Z,101935.00
2022-11-14T11:07:40.855Z,101936.72
2022-11-14T11:11:19.852Z,101940.25
2022-11-14T11:14:41.377Z,101941.13
2022-11-14T11:18:05.075Z,101944.69
2022-11-14T11:21:27.243Z,101942.91
2022-11-14T11:24:50.120Z,101939.38
2022-11-14T11:28:14.577Z,101926.94
2022-11-14T11:31:52.073Z,101932.31
2022-11-14T11:35:15.819Z,101922.53
2022-11-14T11:38:37.216Z,101916.34
2022-11-14T11:42:10.263Z,101911.91
2022-11-14T11:45:34.669Z,101889.75
2022-11-14T11:49:04.005Z,101885.22
2022-11-14T11:52:33.631Z,101886.13
2022-11-14T11:56:00.869Z,101880.88
2022-11-14T11:59:33.481Z,101881.75
2022-11-14T12:02:55.712Z,101877.31
2022-11-14T12:06:24.554Z,101864.94
2022-11-14T12:10:09.924Z,101859.59
2022-11-14T12:13:59.991Z,101861.34
2022-11-14T12:17:42.652Z,101858.66
2022-11-14T12:21:12.394Z,101849.75
2022-11-14T12:25:02.743Z,101859.47
2022-11-14T12:28:48.966Z,101845.25
2022-11-14T12:32:16.815Z,101862.97
2022-11-14T12:35:51.741Z,101841.66
2022-11-14T12:39:23.771Z,101845.25
2022-11-14T12:42:48.304Z,101841.66
2022-11-14T12:46:11.619Z,101839.03
2022-11-14T12:49:40.524Z,101838.16
2022-11-14T12:53:03.545Z,101834.59
2022-11-14T12:56:54.264Z,101839.94
2022-11-14T13:00:18.791Z,101838.97
2022-11-14T13:03:53.483Z,101839.81
2022-11-14T13:07:34.367Z,101839.75
2022-11-14T13:10:57.951Z,101838.84
2022-11-14T13:14:38.006Z,101839.72
2022-11-14T13:18:33.012Z,101830.78
2022-11-14T13:22:33.127Z,101831.72
2022-11-14T13:26:27.126Z,101828.16
2022-11-14T13:29:50.490Z,101823.72
2022-11-14T13:33:41.525Z,101823.72
2022-11-14T13:37:13.799Z,101812.19
2022-11-14T13:40:39.475Z,101817.50
2022-11-14T13:44:16.385Z,101821.88
2022-11-14T13:48:09.272Z,101818.28
2022-11-14T13:51:43.777Z,101809.38
2022-11-14T13:55:06.023Z,101812.84
2022-11-14T13:58:52.270Z,101804.78
2022-11-14T14:02:37.641Z,101801.22
2022-11-14T14:06:14.092Z,101806.41
2022-11-14T14:09:46.323Z,101802.84
2022-11-14T14:13:20.485Z,101795.72
2022-11-14T14:16:50.904Z,101794.78
2022-11-14T14:20:23.002Z,101793.81
2022-11-14T14:23:51.196Z,101787.53
2022-11-14T14:27:21.114Z,101787.50
2022-11-14T14:31:01.288Z,101788.31
2022-11-14T14:34:24.625Z,101771.44
2022-11-14T14:37:51.979Z,101773.22
2022-11-14T14:41:18.052Z,101772.38
2022-11-14T14:44:40.789Z,101770.56
2022-11-14T14:48:04.328Z,101762.63
2022-11-14T14:51:33.997Z,101747.59
2022-11-14T14:54:55.990Z,101750.34
2022-11-14T14:58:26.050Z,101747.69
2022-11-14T15:01:47.472Z,101746.81
2022-11-14T15:05:09.218Z,101743.22
2022-11-14T15:08:33.175Z,101734.28
2022-11-14T15:11:58.227Z,101728.94
2022-11-14T15:15:23.257Z,101722.72
2022-11-14T15:18:45.919Z,101732.50
2022-11-14T15:22:24.017Z,101732.44
2022-11-14T15:25:45.326Z,101727.09
2022-11-14T15:29:09.104Z,101735.97
2022-11-14T15:32:33.653Z,101736.84
2022-11-14T15:36:07.818Z,101734.19
2022-11-14T15:39:29.921Z,101734.19
2022-11-14T15:42:51.592Z,101727.06
2022-11-14T15:46:27.818Z,101722.66
2022-11-14T15:50:02.431Z,101718.19
2022-11-14T15:53:26.569Z,101717.31
2022-11-14T15:56:48.088Z,101713.75
2022-11-14T16:00:13.807Z,101711.97
2022-11-14T16:03:35.385Z,101706.66
2022-11-14T16:06:58.110Z,101711.97
2022-11-14T16:10:21.146Z,101713.75
2022-11-14T16:13:42.635Z,101710.22
2022-11-14T16:17:04.391Z,101716.44
2022-11-14T16:20:28.779Z,101714.72
2022-11-14T16:23:51.610Z,101703.16
2022-11-14T16:27:12.910Z,101709.38
2022-11-14T16:30:34.308Z,101718.22
2022-11-14T16:33:57.915Z,101710.22
2022-11-14T16:37:19.440Z,101708.44
2022-11-14T16:40:44.931Z,101704.91
2022-11-14T16:44:06.632Z,101709.38
2022-11-14T16:47:28.171Z,101714.72
2022-11-14T16:50:55.605Z,101714.72
2022-11-14T16:54:18.618Z,101709.38
2022-11-14T16:57:41.877Z,101708.50
2022-11-14T17:01:03.317Z,101712.06
2022-11-14T17:04:24.879Z,101715.63
2022-11-14T17:07:46.543Z,101721.81
2022-11-14T17:11:09.875Z,101724.50
2022-11-14T17:14:33.029Z,101714.72
2022-11-14T17:17:54.220Z,101716.50
2022-11-14T17:21:15.522Z,101718.28
2022-11-14T17:24:36.706Z,101713.84
2022-11-14T17:27:58.054Z,101716.50
2022-11-14T17:31:21.001Z,101720.94
2022-11-14T17:34:42.258Z,101721.03
2022-11-14T17:38:03.465Z,101712.22
2022-11-14T17:41:25.031Z,101706.00
2022-11-14T17:44:46.471Z,101713.13
2022-11-14T17:48:09.361Z,101697.19
2022-11-14T17:51:31.237Z,101705.19
2022-11-14T17:54:52.786Z,101701.63
2022-11-14T17:58:14.956Z,101707.91
2022-11-14T18:01:36.415Z,101699.94
2022-11-14T18:04:59.009Z,101705.28
2022-11-14T18:08:20.267Z,101697.41
2022-11-14T18:11:41.504Z,101698.31
2022-11-14T18:15:02.693Z,101700.16
2022-11-14T18:18:23.935Z,101699.34
2022-11-14T18:21:52.059Z,101702.00
2022-11-14T18:25:15.067Z,101704.66
2022-11-14T18:28:36.287Z,101703.78
2022-11-14T18:31:57.594Z,101700.25
2022-11-14T18:35:18.978Z,101704.69
2022-11-14T18:38:42.607Z,101701.16
2022-11-14T18:42:04.389Z,101695.88
2022-11-14T18:45:26.091Z,101688.84
2022-11-14T18:48:50.622Z,101682.63
2022-11-14T18:52:17.184Z,101694.25
2022-11-14T18:55:41.759Z,101685.34
2022-11-14T18:59:03.306Z,101683.59
2022-11-14T19:02:24.648Z,101676.56
2022-11-14T19:05:45.773Z,101678.28
2022-11-14T19:09:11.451Z,101679.16
2022-11-14T19:12:34.206Z,101673.88
2022-11-14T19:15:55.329Z,101664.13
2022-11-14T19:19:16.624Z,101661.47
2022-11-14T19:22:37.876Z,101651.75
2022-11-14T19:26:00.823Z,101642.88
2022-11-14T19:29:23.970Z,101645.53
2022-11-14T19:32:45.371Z,101636.69
2022-11-14T19:36:08.776Z,101642.06
2022-11-14T19:39:30.389Z,101643.78
2022-11-14T19:42:55.913Z,101639.34
2022-11-14T19:46:19.317Z,101639.34
2022-11-14T19:49:40.767Z,101644.66
2022-11-14T19:53:02.022Z,101642.00
2022-11-14T19:56:26.169Z,101634.00
2022-11-14T19:59:47.512Z,101636.69
2022-11-14T20:03:09.980Z,101628.69
2022-11-14T20:06:34.101Z,101627.78
2022-11-14T20:09:55.696Z,101630.44
2022-11-14T20:13:16.922Z,101629.56
2022-11-14T20:16:38.591Z,101619.78
2022-11-14T20:20:01.642Z,101621.50
2022-11-14T20:23:23.377Z,101622.44
2022-11-14T20:26:44.860Z,101615.28
2022-11-14T20:30:07.324Z,101613.50
2022-11-14T20:33:29.168Z,101609.13
2022-11-14T20:40:34.945Z,101590.47
2022-11-14T20:43:56.452Z,101592.25
2022-11-14T20:47:18.448Z,101593.16
2022-11-14T20:50:40.289Z,101602.03
2022-11-14T20:54:03.280Z,101590.50
2022-11-14T20:57:24.926Z,101589.63
2022-11-14T21:00:46.474Z,101586.97
2022-11-14T21:04:08.291Z,101585.16
2022-11-14T21:07:30.272Z,101581.59
2022-11-14T21:10:59.758Z,101578.00
2022-11-14T21:14:21.430Z,101570.06
2022-11-14T21:17:42.914Z,101575.38
2022-11-14T21:21:07.297Z,101573.59
2022-11-14T21:24:28.741Z,101570.06
2022-11-14T21:27:51.430Z,101571.84
2022-11-14T21:31:18.239Z,101562.06
2022-11-14T21:34:39.447Z,101559.47
2022-11-14T21:38:00.664Z,101562.97
2022-11-14T21:41:23.582Z,101566.59
2022-11-14T21:44:46.220Z,101562.97
2022-11-14T21:48:07.493Z,101561.19
2022-11-14T21:51:30.291Z,101567.41
2022-11-14T21:54:51.917Z,101546.09
2022-11-14T21:58:13.904Z,101549.63
2022-11-14T22:01:53.833Z,101547.88
2022-11-14T22:05:15.432Z,101546.16
2022-11-14T22:08:36.734Z,101552.31
2022-11-14T22:11:58.590Z,101559.47
2022-11-14T22:15:20.546Z,101566.59
2022-11-14T22:18:43.344Z,101562.13
2022-11-14T22:22:04.990Z,101566.59
2022-11-14T22:25:26.373Z,101549.72
2022-11-14T22:28:48.651Z,101542.59
2022-11-14T22:32:10.208Z,101539.06
2022-11-14T22:35:35.708Z,101537.28
2022-11-14T22:38:58.097Z,101543.50
2022-11-14T22:42:19.819Z,101546.19
2022-11-14T22:45:41.077Z,101539.94
2022-11-14T22:49:03.759Z,101540.84
2022-11-14T22:52:26.612Z,101546.19
2022-11-14T22:55:48.868Z,101538.19
2022-11-14T22:59:10.465Z,101537.34
2022-11-14T23:02:31.685Z,101525.81
2022-11-14T23:05:53.132Z,101539.13
2022-11-14T23:09:16.092Z,101534.69
2022-11-14T23:12:37.466Z,101521.34
2022-11-14T23:15:58.930Z,101524.03
2022-11-14T23:19:20.361Z,101516.94
2022-11-14T23:22:41.661Z,101514.28
2022-11-14T23:26:06.577Z,101509.81
2022-11-14T23:29:29.159Z,101513.41
2022-11-14T23:32:50.809Z,101511.63
2022-11-14T23:36:12.256Z,101506.22
2022-11-14T23:39:33.715Z,101501.75
2022-11-14T23:42:56.460Z,101505.31
2022-11-14T23:46:17.709Z,101491.97
2022-11-14T23:49:38.822Z,101490.19
2022-11-14T23:53:00.103Z,101484.88
2022-11-14T23:56:21.575Z,101492.84
2022-11-14T23:59:44.120Z,101489.31
